sensor_id;sensor_type;location;lat;lon;timestamp;pressure;altitude;pressure_sealevel;temperature;humidity
24230;BME280;12362;50.004;8.006;2023-01-29T00:00:28;102004.69;;;1.21;100.00
24230;BME280;12362;50.004;8.006;2023-01-29T00:02:54;101993.66;;;1.25;100.00
24230;BME280;12362;50.004;8.006;2023-01-29T00:05:19;101996.09;;;1.16;100.00
24230;BME280;12362;50.004;8.006;2023-01-29T00:07:45;101998.56;;;1.11;100.00
24230;BME280;12362;50.004;8.006;2023-01-29T00:10:11;102002.03;;;1.13;100.00
24230;BME280;12362;50.004;8.006;2023-01-29T00:12:36;101998.69;;;1.17;100.00
24230;BME280;12362;50.004;8.006;2023-01-29T00:15:02;102006.38;;;1.20;100.00
24230;BME280;12362;50.004;8.006;2023-01-29T00:17:27;102005.59;;;1.24;100.00
24230;BME280;12362;50.004;8.006;2023-01-29T00:19:53;102004.81;;;1.30;100.00
24230;BME280;12362;50.004;8.006;2023-01-29T00:22:18;102021.88;;;1.29;100.00
24230;BME280;12362;50.004;8.006;2023-01-29T00:24:44;102016.66;;;1.25;100.00
24230;BME280;12362;50.004;8.006;2023-01-29T00:27:09;102020.03;;;1.21;100.00
24230;BME280;12362;50.004;8.006;2023-01-29T00:29:41;102022.47;;;1.12;100.00
24230;BME280;12362;50.004;8.006;2023-01-29T00:32:07;102021.53;;;1.08;100.00
24230;BME280;12362;50.004;8.006;2023-01-29T00:34:35;102025.75;;;1.05;100.00
24230;BME280;12362;50.004;8.006;2023-01-29T00:37:01;102035.16;;;1.07;100.00
24230;BME280;12362;50.004;8.006;2023-01-29T00:39:33;102026.63;;;1.05;100.00
24230;BME280;12362;50.004;8.006;2023-01-29T00:42:06;102024.97;;;1.10;100.00
24230;BME280;12362;50.004;8.006;2023-01-29T00:44:54;102021.75;;;1.22;100.00
24230;BME280;12362;50.004;8.006;2023-01-29T00:47:23;102015.81;;;1.23;100.00
24230;BME280;12362;50.004;8.006;2023-01-29T00:49:59;102010.69;;;1.23;100.00
24230;BME280;12362;50.004;8.006;2023-01-29T00:52:25;102017.53;;;1.24;100.00
24230;BME280;12362;50.004;8.006;2023-01-29T00:54:52;102012.25;;;1.15;100.00
24230;BME280;12362;50.004;8.006;2023-01-29T00:57:18;102008.06;;;1.18;100.00
24230;BME280;12362;50.004;8.006;2023-01-29T00:59:44;102009.75;;;1.16;100.00
24230;BME280;12362;50.004;8.006;2023-01-29T01:02:11;102014.75;;;1.10;100.00
24230;BME280;12362;50.004;8.006;2023-01-29T01:04:55;102015.63;;;1.11;100.00
24230;BME280;12362;50.004;8.006;2023-01-29T01:07:22;102014.75;;;1.09;100.00
24230;BME280;12362;50.004;8.006;2023-01-29T01:09:47;102018.06;;;1.03;100.00
24230;BME280;12362;50.004;8.006;2023-01-29T01:12:32;102011.34;;;1.10;100.00
24230;BME280;12362;50.004;8.006;2023-01-29T01:14:57;102003.69;;;1.11;100.00
24230;BME280;12362;50.004;8.006;2023-01-29T01:17:23;102005.41;;;1.11;100.00
24230;BME280;12362;50.004;8.006;2023-01-29T01:19:49;101992.56;;;1.06;100.00
24230;BME280;12362;50.004;8.006;2023-01-29T01:22:15;101995.00;;;1.02;100.00
24230;BME280;12362;50.004;8.006;2023-01-29T01:24:42;101989.13;;;1.06;100.00
24230;BME280;12362;50.004;8.006;2023-01-29T01:27:07;101988.16;;;0.98;100.00
24230;BME280;12362;50.004;8.006;2023-01-29T01:29:48;101983.88;;;0.98;100.00
24230;BME280;12362;50.004;8.006;2023-01-29T01:32:14;101986.50;;;1.00;100.00
24230;BME280;12362;50.004;8.006;2023-01-29T01:34:40;101973.66;;;0.98;100.00
24230;BME280;12362;50.004;8.006;2023-01-29T01:37:05;101974.44;;;0.93;100.00
24230;BME280;12362;50.004;8.006;2023-01-29T01:39:31;101964.28;;;0.97;100.00
24230;BME280;12362;50.004;8.006;2023-01-29T01:41:56;101968.47;;;0.92;100.00
24230;BME280;12362;50.004;8.006;2023-01-29T01:44:51;101962.53;;;0.93;100.00
24230;BME280;12362;50.004;8.006;2023-01-29T01:47:23;101961.69;;;0.96;100.00
24230;BME280;12362;50.004;8.006;2023-01-29T01:49:52;101953.84;;;0.84;100.00
24230;BME280;12362;50.004;8.006;2023-01-29T01:52:19;101947.91;;;0.87;100.00
24230;BME280;12362;50.004;8.006;2023-01-29T01:54:46;101948.78;;;0.87;100.00
24230;BME280;12362;50.004;8.006;2023-01-29T01:57:28;101952.97;;;0.82;100.00
24230;BME280;12362;50.004;8.006;2023-01-29T02:00:03;101943.63;;;0.83;100.00
24230;BME280;12362;50.004;8.006;2023-01-29T02:02:44;101940.94;;;0.77;100.00
24230;BME280;12362;50.004;8.006;2023-01-29T02:05:31;101946.13;;;0.81;100.00
24230;BME280;12362;50.004;8.006;2023-01-29T02:08:19;101943.56;;;0.81;100.00
24230;BME280;12362;50.004;8.006;2023-01-29T02:11:07;101947.78;;;0.76;100.00
24230;BME280;12362;50.004;8.006;2023-01-29T02:13:33;101940.06;;;0.73;100.00
24230;BME280;12362;50.004;8.006;2023-01-29T02:15:59;101944.31;;;0.74;100.00
24230;BME280;12362;50.004;8.006;2023-01-29T02:18:24;101949.47;;;0.77;100.00
24230;BME280;12362;50.004;8.006;2023-01-29T02:21:14;101936.50;;;0.65;100.00
24230;BME280;12362;50.004;8.006;2023-01-29T02:23:58;101934.75;;;0.63;100.00
24230;BME280;12362;50.004;8.006;2023-01-29T02:26:39;101937.25;;;0.58;100.00
24230;BME280;12362;50.004;8.006;2023-01-29T02:29:27;101954.31;;;0.59;100.00
24230;BME280;12362;50.004;8.006;2023-01-29T02:34:35;101960.38;;;0.67;100.00
24230;BME280;12362;50.004;8.006;2023-01-29T02:37:28;101964.72;;;0.70;100.00
24230;BME280;12362;50.004;8.006;2023-01-29T02:40:14;101969.81;;;0.71;100.00
24230;BME280;12362;50.004;8.006;2023-01-29T02:42:52;101975.84;;;0.73;100.00
24230;BME280;12362;50.004;8.006;2023-01-29T02:45:32;101976.38;;;0.56;100.00
24230;BME280;12362;50.004;8.006;2023-01-29T02:48:00;101988.16;;;0.48;100.00
24230;BME280;12362;50.004;8.006;2023-01-29T02:50:31;101989.09;;;0.51;100.00
24230;BME280;12362;50.004;8.006;2023-01-29T02:53:12;101986.69;;;0.62;100.00
24230;BME280;12362;50.004;8.006;2023-01-29T02:56:16;101987.56;;;0.62;100.00
24230;BME280;12362;50.004;8.006;2023-01-29T02:59:01;101984.00;;;0.54;100.00
24230;BME280;12362;50.004;8.006;2023-01-29T03:01:37;101984.06;;;0.57;100.00
24230;BME280;12362;50.004;8.006;2023-01-29T03:04:10;101973.91;;;0.62;100.00
24230;BME280;12362;50.004;8.006;2023-01-29T03:06:40;101965.41;;;0.61;100.00
24230;BME280;12362;50.004;8.006;2023-01-29T03:09:23;101967.00;;;0.55;100.00
24230;BME280;12362;50.004;8.006;2023-01-29T03:11:54;101966.03;;;0.48;100.00
24230;BME280;12362;50.004;8.006;2023-01-29T03:14:37;101965.91;;;0.42;100.00
24230;BME280;12362;50.004;8.006;2023-01-29T03:17:26;101969.16;;;0.32;100.00
24230;BME280;12362;50.004;8.006;2023-01-29T03:19:57;101971.63;;;0.28;100.00
24230;BME280;12362;50.004;8.006;2023-01-29T03:22:23;101969.13;;;0.29;100.00
24230;BME280;12362;50.004;8.006;2023-01-29T03:24:59;101968.91;;;0.17;100.00
24230;BME280;12362;50.004;8.006;2023-01-29T03:27:58;101971.47;;;0.19;100.00
24230;BME280;12362;50.004;8.006;2023-01-29T03:30:54;101979.16;;;0.20;100.00
24230;BME280;12362;50.004;8.006;2023-01-29T03:34:15;101983.28;;;0.14;100.00
24230;BME280;12362;50.004;8.006;2023-01-29T03:36:57;101979.72;;;0.04;100.00
24230;BME280;12362;50.004;8.006;2023-01-29T03:39:26;101980.50;;;0.00;100.00
24230;BME280;12362;50.004;8.006;2023-01-29T03:53:18;101968.47;;;-0.05;100.00
24230;BME280;12362;50.004;8.006;2023-01-29T03:55:59;101972.53;;;-0.16;100.00
24230;BME280;12362;50.004;8.006;2023-01-29T03:59:01;101982.56;;;-0.25;100.00
24230;BME280;12362;50.004;8.006;2023-01-29T04:01:56;101987.25;;;-0.43;100.00
24230;BME280;12362;50.004;8.006;2023-01-29T04:04:32;101988.66;;;-0.57;100.00
24230;BME280;12362;50.004;8.006;2023-01-29T04:07:11;101987.03;;;-0.53;100.00
24230;BME280;12362;50.004;8.006;2023-01-29T04:09:53;101974.34;;;-0.50;100.00
24230;BME280;12362;50.004;8.006;2023-01-29T04:12:25;101967.66;;;-0.45;100.00
24230;BME280;12362;50.004;8.006;2023-01-29T04:14:52;101961.69;;;-0.46;100.00
24230;BME280;12362;50.004;8.006;2023-01-29T04:17:35;101964.06;;;-0.53;100.00
24230;BME280;12362;50.004;8.006;2023-01-29T04:20:10;101970.88;;;-0.55;100.00
24230;BME280;12362;50.004;8.006;2023-01-29T04:22:37;101963.97;;;-0.59;100.00
24230;BME280;12362;50.004;8.006;2023-01-29T04:25:07;101963.94;;;-0.61;100.00
24230;BME280;12362;50.004;8.006;2023-01-29T04:33:24;101975.00;;;-0.59;100.00
24230;BME280;12362;50.004;8.006;2023-01-29T04:36:04;101973.31;;;-0.60;100.00
24230;BME280;12362;50.004;8.006;2023-01-29T04:41:32;101969.25;;;-0.50;100.00
24230;BME280;12362;50.004;8.006;2023-01-29T04:44:18;101970.94;;;-0.51;100.00
24230;BME280;12362;50.004;8.006;2023-01-29T04:46:51;101973.63;;;-0.45;100.00
24230;BME280;12362;50.004;8.006;2023-01-29T04:49:29;101967.81;;;-0.38;100.00
24230;BME280;12362;50.004;8.006;2023-01-29T04:57:18;101963.22;;;-0.55;100.00
24230;BME280;12362;50.004;8.006;2023-01-29T05:02:36;101962.16;;;-0.63;100.00
24230;BME280;12362;50.004;8.006;2023-01-29T05:05:03;101970.59;;;-0.67;100.00
24230;BME280;12362;50.004;8.006;2023-01-29T05:07:31;101973.94;;;-0.70;100.00
24230;BME280;12362;50.004;8.006;2023-01-29T05:10:00;101978.03;;;-0.76;100.00
24230;BME280;12362;50.004;8.006;2023-01-29T05:12:28;101977.19;;;-0.75;100.00
24230;BME280;12362;50.004;8.006;2023-01-29T05:14:59;101984.94;;;-0.72;100.00
24230;BME280;12362;50.004;8.006;2023-01-29T05:17:26;101970.56;;;-0.69;100.00
24230;BME280;12362;50.004;8.006;2023-01-29T05:19:54;101965.44;;;-0.70;100.00
24230;BME280;12362;50.004;8.006;2023-01-29T05:22:21;101948.38;;;-0.73;100.00
24230;BME280;12362;50.004;8.006;2023-01-29T05:24:50;101944.13;;;-0.74;100.00
24230;BME280;12362;50.004;8.006;2023-01-29T05:27:20;101947.50;;;-0.73;100.00
24230;BME280;12362;50.004;8.006;2023-01-29T05:30:06;101944.06;;;-0.75;100.00
24230;BME280;12362;50.004;8.006;2023-01-29T05:32:31;101941.47;;;-0.78;100.00
24230;BME280;12362;50.004;8.006;2023-01-29T05:34:57;101944.78;;;-0.82;100.00
24230;BME280;12362;50.004;8.006;2023-01-29T05:37:23;101958.16;;;-0.92;100.00
24230;BME280;12362;50.004;8.006;2023-01-29T05:39:48;101958.81;;;-1.00;100.00
24230;BME280;12362;50.004;8.006;2023-01-29T05:42:14;101960.38;;;-1.05;100.00
24230;BME280;12362;50.004;8.006;2023-01-29T05:44:39;101965.25;;;-1.16;100.00
24230;BME280;12362;50.004;8.006;2023-01-29T05:47:05;101965.06;;;-1.23;100.00
24230;BME280;12362;50.004;8.006;2023-01-29T05:49:31;101962.31;;;-1.32;100.00
24230;BME280;12362;50.004;8.006;2023-01-29T05:51:56;101972.41;;;-1.35;100.00
24230;BME280;12362;50.004;8.006;2023-01-29T05:54:22;101976.72;;;-1.33;100.00
24230;BME280;12362;50.004;8.006;2023-01-29T05:56:47;101971.66;;;-1.31;100.00
24230;BME280;12362;50.004;8.006;2023-01-29T05:59:14;101983.59;;;-1.29;100.00
24230;BME280;12362;50.004;8.006;2023-01-29T06:01:40;101992.91;;;-1.29;100.00
24230;BME280;12362;50.004;8.006;2023-01-29T06:04:05;101997.34;;;-1.22;100.00
24230;BME280;12362;50.004;8.006;2023-01-29T06:06:31;101986.34;;;-1.21;100.00
24230;BME280;12362;50.004;8.006;2023-01-29T06:08:58;101978.06;;;-1.13;100.00
24230;BME280;12362;50.004;8.006;2023-01-29T06:11:24;101981.66;;;-1.03;100.00
24230;BME280;12362;50.004;8.006;2023-01-29T06:13:50;101975.84;;;-0.98;100.00
24230;BME280;12362;50.004;8.006;2023-01-29T06:16:15;101973.34;;;-0.96;100.00
24230;BME280;12362;50.004;8.006;2023-01-29T06:18:41;101974.28;;;-0.93;100.00
24230;BME280;12362;50.004;8.006;2023-01-29T06:21:09;101957.38;;;-0.88;100.00
24230;BME280;12362;50.004;8.006;2023-01-29T06:23:36;101957.31;;;-0.91;100.00
24230;BME280;12362;50.004;8.006;2023-01-29T06:26:03;101965.66;;;-0.98;100.00
24230;BME280;12362;50.004;8.006;2023-01-29T06:28:29;101953.72;;;-0.99;100.00
24230;BME280;12362;50.004;8.006;2023-01-29T06:31:01;101947.81;;;-0.98;100.00
24230;BME280;12362;50.004;8.006;2023-01-29T06:33:27;101951.91;;;-1.04;100.00
24230;BME280;12362;50.004;8.006;2023-01-29T06:36:00;101946.72;;;-1.09;100.00
24230;BME280;12362;50.004;8.006;2023-01-29T06:38:26;101951.78;;;-1.10;100.00
24230;BME280;12362;50.004;8.006;2023-01-29T06:40:53;101960.16;;;-1.16;100.00
24230;BME280;12362;50.004;8.006;2023-01-29T06:43:19;101961.88;;;-1.15;100.00
24230;BME280;12362;50.004;8.006;2023-01-29T06:45:49;101955.16;;;-1.11;100.00
24230;BME280;12362;50.004;8.006;2023-01-29T06:48:15;101958.34;;;-1.20;100.00
24230;BME280;12362;50.004;8.006;2023-01-29T06:50:41;101953.94;;;-1.27;100.00
24230;BME280;12362;50.004;8.006;2023-01-29T06:53:07;101952.06;;;-1.34;100.00
24230;BME280;12362;50.004;8.006;2023-01-29T06:55:32;101951.06;;;-1.40;100.00
24230;BME280;12362;50.004;8.006;2023-01-29T06:57:58;101960.38;;;-1.42;100.00
24230;BME280;12362;50.004;8.006;2023-01-29T07:00:24;101960.28;;;-1.45;100.00
24230;BME280;12362;50.004;8.006;2023-01-29T07:02:49;101968.78;;;-1.45;100.00
24230;BME280;12362;50.004;8.006;2023-01-29T07:05:15;101967.75;;;-1.51;100.00
24230;BME280;12362;50.004;8.006;2023-01-29T07:07:40;101971.09;;;-1.54;100.00
24230;BME280;12362;50.004;8.006;2023-01-29T07:10:07;101973.72;;;-1.51;100.00
24230;BME280;12362;50.004;8.006;2023-01-29T07:12:32;101963.59;;;-1.48;100.00
24230;BME280;12362;50.004;8.006;2023-01-29T07:14:58;101968.75;;;-1.46;100.00
24230;BME280;12362;50.004;8.006;2023-01-29T07:17:23;101978.19;;;-1.42;100.00
24230;BME280;12362;50.004;8.006;2023-01-29T07:19:49;101988.38;;;-1.42;100.00
24230;BME280;12362;50.004;8.006;2023-01-29T07:22:14;101999.31;;;-1.45;100.00
24230;BME280;12362;50.004;8.006;2023-01-29T07:24:40;102009.50;;;-1.45;100.00
24230;BME280;12362;50.004;8.006;2023-01-29T07:27:06;102013.66;;;-1.50;100.00
24230;BME280;12362;50.004;8.006;2023-01-29T07:29:32;102005.34;;;-1.41;100.00
24230;BME280;12362;50.004;8.006;2023-01-29T07:31:57;102003.19;;;-1.26;100.00
24230;BME280;12362;50.004;8.006;2023-01-29T07:34:23;102006.66;;;-1.23;100.00
24230;BME280;12362;50.004;8.006;2023-01-29T07:36:52;102007.44;;;-1.27;100.00
24230;BME280;12362;50.004;8.006;2023-01-29T07:39:19;101998.81;;;-1.32;100.00
24230;BME280;12362;50.004;8.006;2023-01-29T07:41:44;101993.22;;;-1.17;100.00
24230;BME280;12362;50.004;8.006;2023-01-29T07:44:14;101993.44;;;-1.08;100.00
24230;BME280;12362;50.004;8.006;2023-01-29T07:46:40;101982.63;;;-0.98;100.00
24230;BME280;12362;50.004;8.006;2023-01-29T07:49:05;101983.75;;;-0.88;100.00
24230;BME280;12362;50.004;8.006;2023-01-29T07:51:31;101983.13;;;-0.76;100.00
24230;BME280;12362;50.004;8.006;2023-01-29T07:53:57;101973.94;;;-0.70;100.00
24230;BME280;12362;50.004;8.006;2023-01-29T07:56:22;101974.16;;;-0.61;100.00
24230;BME280;12362;50.004;8.006;2023-01-29T07:58:48;101974.25;;;-0.55;100.00
24230;BME280;12362;50.004;8.006;2023-01-29T08:01:13;101975.16;;;-0.53;100.00
24230;BME280;12362;50.004;8.006;2023-01-29T08:03:39;101972.84;;;-0.42;100.00
24230;BME280;12362;50.004;8.006;2023-01-29T08:06:05;101980.63;;;-0.35;100.00
24230;BME280;12362;50.004;8.006;2023-01-29T08:08:30;101974.91;;;-0.25;100.00
24230;BME280;12362;50.004;8.006;2023-01-29T08:10:59;101969.97;;;-0.16;100.00
24230;BME280;12362;50.004;8.006;2023-01-29T08:13:24;101959.94;;;-0.05;100.00
24230;BME280;12362;50.004;8.006;2023-01-29T08:15:49;101969.22;;;-0.10;100.00
24230;BME280;12362;50.004;8.006;2023-01-29T08:18:15;101981.09;;;-0.12;100.00
24230;BME280;12362;50.004;8.006;2023-01-29T08:20:40;101987.19;;;-0.04;100.00
24230;BME280;12362;50.004;8.006;2023-01-29T08:23:12;101992.34;;;-0.03;100.00
24230;BME280;12362;50.004;8.006;2023-01-29T08:25:38;102006.03;;;0.02;100.00
24230;BME280;12362;50.004;8.006;2023-01-29T08:28:04;101996.88;;;0.13;100.00
24230;BME280;12362;50.004;8.006;2023-01-29T08:30:31;101987.63;;;0.18;100.00
24230;BME280;12362;50.004;8.006;2023-01-29T08:32:57;101977.25;;;0.09;100.00
24230;BME280;12362;50.004;8.006;2023-01-29T08:35:23;101981.03;;;0.29;100.00
24230;BME280;12362;50.004;8.006;2023-01-29T08:37:57;101988.97;;;0.44;100.00
24230;BME280;12362;50.004;8.006;2023-01-29T08:40:24;101995.03;;;0.52;100.00
24230;BME280;12362;50.004;8.006;2023-01-29T08:42:49;101996.88;;;0.59;100.00
24230;BME280;12362;50.004;8.006;2023-01-29T08:45:15;101980.88;;;0.69;100.00
24230;BME280;12362;50.004;8.006;2023-01-29T08:47:48;101974.75;;;0.59;100.00
24230;BME280;12362;50.004;8.006;2023-01-29T08:50:14;101973.56;;;0.41;100.00
24230;BME280;12362;50.004;8.006;2023-01-29T08:52:41;101984.97;;;0.59;100.00
24230;BME280;12362;50.004;8.006;2023-01-29T08:55:07;101988.53;;;0.69;100.00
24230;BME280;12362;50.004;8.006;2023-01-29T08:57:32;101979.50;;;0.90;100.00
24230;BME280;12362;50.004;8.006;2023-01-29T08:59:58;101987.44;;;1.08;100.00
24230;BME280;12362;50.004;8.006;2023-01-29T09:02:23;101985.78;;;1.11;100.00
24230;BME280;12362;50.004;8.006;2023-01-29T09:04:49;101985.91;;;1.17;100.00
24230;BME280;12362;50.004;8.006;2023-01-29T09:07:14;101987.63;;;1.20;100.00
24230;BME280;12362;50.004;8.006;2023-01-29T09:09:40;101979.91;;;1.17;100.00
24230;BME280;12362;50.004;8.006;2023-01-29T09:12:05;101985.91;;;1.17;100.00
24230;BME280;12362;50.004;8.006;2023-01-29T09:14:31;101996.84;;;1.09;100.00
24230;BME280;12362;50.004;8.006;2023-01-29T09:16:57;102002.34;;;0.81;100.00
24230;BME280;12362;50.004;8.006;2023-01-29T09:19:23;101990.47;;;0.85;100.00
24230;BME280;12362;50.004;8.006;2023-01-29T09:21:48;101988.84;;;0.88;100.00
24230;BME280;12362;50.004;8.006;2023-01-29T09:24:14;101989.69;;;0.88;100.00
24230;BME280;12362;50.004;8.006;2023-01-29T09:26:40;101993.59;;;0.67;100.00
24230;BME280;12362;50.004;8.006;2023-01-29T09:29:06;102000.47;;;0.70;100.00
24230;BME280;12362;50.004;8.006;2023-01-29T09:31:31;102004.28;;;0.95;100.00
24230;BME280;12362;50.004;8.006;2023-01-29T09:33:57;102009.38;;;0.92;100.00
24230;BME280;12362;50.004;8.006;2023-01-29T09:36:22;102013.84;;;1.07;100.00
24230;BME280;12362;50.004;8.006;2023-01-29T09:38:48;102007.91;;;1.09;100.00
24230;BME280;12362;50.004;8.006;2023-01-29T09:44:23;102006.19;;;1.07;100.00
24230;BME280;12362;50.004;8.006;2023-01-29T09:46:54;102012.31;;;1.19;100.00
24230;BME280;12362;50.004;8.006;2023-01-29T09:49:27;102004.59;;;1.15;100.00
24230;BME280;12362;50.004;8.006;2023-01-29T09:52:18;102012.25;;;1.13;100.00
24230;BME280;12362;50.004;8.006;2023-01-29T09:57:53;102019.75;;;1.01;100.00
24230;BME280;12362;50.004;8.006;2023-01-29T10:00:28;102020.69;;;1.08;100.00
24230;BME280;12362;50.004;8.006;2023-01-29T10:14:31;101999.34;;;1.04;100.00
24230;BME280;12362;50.004;8.006;2023-01-29T10:20:30;102019.28;;;1.28;100.00
24230;BME280;12362;50.004;8.006;2023-01-29T10:23:21;102010.13;;;0.87;100.00
24230;BME280;12362;50.004;8.006;2023-01-29T10:25:49;102001.59;;;0.85;100.00
24230;BME280;12362;50.004;8.006;2023-01-29T10:31:31;101960.56;;;1.37;100.00
24230;BME280;12362;50.004;8.006;2023-01-29T10:36:47;101956.03;;;1.84;100.00
24230;BME280;12362;50.004;8.006;2023-01-29T10:39:18;101949.91;;;1.69;100.00
24230;BME280;12362;50.004;8.006;2023-01-29T10:55:49;101907.78;;;1.42;100.00
24230;BME280;12362;50.004;8.006;2023-01-29T10:58:29;101909.88;;;1.76;100.00
24230;BME280;12362;50.004;8.006;2023-01-29T11:00:59;101898.63;;;1.62;100.00
24230;BME280;12362;50.004;8.006;2023-01-29T11:03:30;101898.03;;;1.83;100.00
24230;BME280;12362;50.004;8.006;2023-01-29T11:06:14;101893.59;;;1.68;100.00
24230;BME280;12362;50.004;8.006;2023-01-29T11:11:39;101887.66;;;1.75;100.00
24230;BME280;12362;50.004;8.006;2023-01-29T11:14:28;101893.31;;;1.44;100.00
24230;BME280;12362;50.004;8.006;2023-01-29T11:16:55;101886.69;;;1.64;100.00
24230;BME280;12362;50.004;8.006;2023-01-29T11:19:39;101875.66;;;1.68;100.00
24230;BME280;12362;50.004;8.006;2023-01-29T11:22:13;101863.25;;;2.08;100.00
24230;BME280;12362;50.004;8.006;2023-01-29T11:24:39;101855.78;;;2.33;100.00
24230;BME280;12362;50.004;8.006;2023-01-29T11:27:14;101859.16;;;2.28;100.00
24230;BME280;12362;50.004;8.006;2023-01-29T11:29:46;101849.78;;;2.30;100.00
24230;BME280;12362;50.004;8.006;2023-01-29T11:32:23;101855.94;;;2.57;100.00
24230;BME280;12362;50.004;8.006;2023-01-29T11:37:33;101841.91;;;3.62;100.00
24230;BME280;12362;50.004;8.006;2023-01-29T11:39:59;101844.56;;;4.01;100.00
24230;BME280;12362;50.004;8.006;2023-01-29T11:42:29;101831.69;;;4.43;100.00
24230;BME280;12362;50.004;8.006;2023-01-29T11:44:55;101829.09;;;4.59;100.00
24230;BME280;12362;50.004;8.006;2023-01-29T11:47:25;101834.13;;;3.40;100.00
24230;BME280;12362;50.004;8.006;2023-01-29T11:49:56;101822.28;;;3.92;100.00
24230;BME280;12362;50.004;8.006;2023-01-29T11:52:32;101818.78;;;3.59;100.00
24230;BME280;12362;50.004;8.006;2023-01-29T11:55:04;101811.91;;;3.46;100.00
24230;BME280;12362;50.004;8.006;2023-01-29T11:57:38;101821.25;;;3.22;100.00
24230;BME280;12362;50.004;8.006;2023-01-29T12:02:37;101812.75;;;3.36;100.00
24230;BME280;12362;50.004;8.006;2023-01-29T12:05:15;101796.59;;;4.00;100.00
24230;BME280;12362;50.004;8.006;2023-01-29T12:07:46;101784.56;;;3.73;100.00
24230;BME280;12362;50.004;8.006;2023-01-29T12:13:04;101765.75;;;4.04;100.00
24230;BME280;12362;50.004;8.006;2023-01-29T12:15:31;101767.47;;;4.10;100.00
24230;BME280;12362;50.004;8.006;2023-01-29T12:18:04;101756.34;;;3.82;100.00
24230;BME280;12362;50.004;8.006;2023-01-29T12:20:36;101762.34;;;4.01;100.00
24230;BME280;12362;50.004;8.006;2023-01-29T12:26:16;101743.44;;;4.29;100.00
24230;BME280;12362;50.004;8.006;2023-01-29T12:32:06;101733.06;;;4.63;100.00
24230;BME280;12362;50.004;8.006;2023-01-29T12:34:44;101725.34;;;4.63;100.00
24230;BME280;12362;50.004;8.006;2023-01-29T12:37:23;101731.25;;;4.83;100.00
24230;BME280;12362;50.004;8.006;2023-01-29T12:39:52;101733.00;;;4.79;100.00
24230;BME280;12362;50.004;8.006;2023-01-29T12:42:23;101727.16;;;4.36;100.00
24230;BME280;12362;50.004;8.006;2023-01-29T12:45:00;101724.63;;;4.01;100.00
24230;BME280;12362;50.004;8.006;2023-01-29T12:47:37;101726.34;;;3.95;100.00
24230;BME280;12362;50.004;8.006;2023-01-29T12:50:14;101715.19;;;4.09;100.00
24230;BME280;12362;50.004;8.006;2023-01-29T12:52:47;101716.09;;;3.74;100.00
24230;BME280;12362;50.004;8.006;2023-01-29T12:55:20;101704.94;;;3.96;100.00
24230;BME280;12362;50.004;8.006;2023-01-29T13:01:37;101686.78;;;4.66;100.00
24230;BME280;12362;50.004;8.006;2023-01-29T13:07:41;101683.13;;;5.04;100.00
24230;BME280;12362;50.004;8.006;2023-01-29T13:10:40;101695.56;;;3.78;100.00
24230;BME280;12362;50.004;8.006;2023-01-29T13:15:46;101688.72;;;3.57;100.00
24230;BME280;12362;50.004;8.006;2023-01-29T13:21:00;101685.25;;;3.95;100.00
24230;BME280;12362;50.004;8.006;2023-01-29T13:23:41;101681.81;;;4.14;100.00
24230;BME280;12362;50.004;8.006;2023-01-29T13:29:54;101653.13;;;5.00;100.00
24230;BME280;12362;50.004;8.006;2023-01-29T13:32:34;101640.88;;;5.37;100.00
24230;BME280;12362;50.004;8.006;2023-01-29T13:35:04;101645.91;;;5.48;100.00
24230;BME280;12362;50.004;8.006;2023-01-29T13:37:36;101627.88;;;5.48;100.00
24230;BME280;12362;50.004;8.006;2023-01-29T13:40:06;101631.06;;;5.74;100.00
24230;BME280;12362;50.004;8.006;2023-01-29T13:42:41;101639.75;;;5.64;100.00
24230;BME280;12362;50.004;8.006;2023-01-29T13:45:41;101639.13;;;5.40;100.00
24230;BME280;12362;50.004;8.006;2023-01-29T13:48:17;101631.72;;;4.97;100.00
24230;BME280;12362;50.004;8.006;2023-01-29T13:50:45;101625.59;;;5.11;100.00
24230;BME280;12362;50.004;8.006;2023-01-29T13:53:34;101617.78;;;5.23;100.00
24230;BME280;12362;50.004;8.006;2023-01-29T13:59:05;101626.53;;;4.98;100.00
24230;BME280;12362;50.004;8.006;2023-01-29T14:01:59;101618.78;;;5.07;100.00
24230;BME280;12362;50.004;8.006;2023-01-29T14:04:31;101612.00;;;4.93;100.00
24230;BME280;12362;50.004;8.006;2023-01-29T14:06:58;101612.97;;;4.74;100.00
24230;BME280;12362;50.004;8.006;2023-01-29T14:10:00;101602.94;;;5.53;100.00
24230;BME280;12362;50.004;8.006;2023-01-29T14:12:36;101607.97;;;5.65;100.00
24230;BME280;12362;50.004;8.006;2023-01-29T14:15:17;101611.94;;;5.03;100.00
24230;BME280;12362;50.004;8.006;2023-01-29T14:20:33;101623.50;;;4.23;100.00
24230;BME280;12362;50.004;8.006;2023-01-29T14:23:05;101619.25;;;4.24;100.00
24230;BME280;12362;50.004;8.006;2023-01-29T14:25:33;101621.69;;;4.46;100.00
24230;BME280;12362;50.004;8.006;2023-01-29T14:28:21;101611.25;;;4.76;100.00
24230;BME280;12362;50.004;8.006;2023-01-29T14:30:48;101610.09;;;5.16;100.00
24230;BME280;12362;50.004;8.006;2023-01-29T14:35:50;101602.19;;;5.39;100.00
24230;BME280;12362;50.004;8.006;2023-01-29T14:38:22;101605.13;;;4.98;100.00
24230;BME280;12362;50.004;8.006;2023-01-29T14:40:49;101595.63;;;5.04;100.00
24230;BME280;12362;50.004;8.006;2023-01-29T14:43:16;101585.28;;;5.12;100.00
24230;BME280;12362;50.004;8.006;2023-01-29T14:45:48;101587.25;;;4.77;100.00
24230;BME280;12362;50.004;8.006;2023-01-29T14:48:36;101587.22;;;4.84;100.00
24230;BME280;12362;50.004;8.006;2023-01-29T14:51:09;101583.34;;;5.36;100.00
24230;BME280;12362;50.004;8.006;2023-01-29T14:56:29;101578.53;;;4.97;100.00
24230;BME280;12362;50.004;8.006;2023-01-29T14:59:42;101570.56;;;5.24;100.00
24230;BME280;12362;50.004;8.006;2023-01-29T15:02:19;101573.31;;;5.05;100.00
24230;BME280;12362;50.004;8.006;2023-01-29T15:04:52;101566.50;;;4.99;100.00
24230;BME280;12362;50.004;8.006;2023-01-29T15:07:27;101573.38;;;4.99;100.00